createdAt,value
2018-12-23T00:00:11.252Z,100701.13
2018-12-23T00:00:45.890Z,100702.44
2018-12-23T00:01:20.539Z,100699.86
2018-12-23T00:01:55.150Z,100702.67
2018-12-23T00:02:29.744Z,100695.88
2018-12-23T00:03:04.818Z,100691.25
2018-12-23T00:03:39.443Z,100691.28
2018-12-23T00:04:14.188Z,100698.25
2018-12-23T00:04:48.941Z,100695.12
2018-12-23T00:05:23.549Z,100698.02
2018-12-23T00:05:58.230Z,100696.05
2018-12-23T00:06:32.838Z,100693.14
2018-12-23T00:07:07.457Z,100696.07
2018-12-23T00:07:42.164Z,100694.19
2018-12-23T00:08:16.787Z,100693.58
2018-12-23T00:08:51.398Z,100692.03
2018-12-23T00:09:26.035Z,100693.30
2018-12-23T00:10:00.664Z,100686.61
2018-12-23T00:10:35.277Z,100690.15
2018-12-23T00:11:09.962Z,100688.14
2018-12-23T00:11:44.614Z,100694.22
2018-12-23T00:12:19.912Z,100695.09
2018-12-23T00:12:54.574Z,100695.92
2018-12-23T00:13:29.253Z,100684.70
2018-12-23T00:14:03.845Z,100688.75
2018-12-23T00:14:38.736Z,100691.90
2018-12-23T00:15:13.432Z,100699.30
2018-12-23T00:15:48.036Z,100695.92
2018-12-23T00:16:22.735Z,100698.61
2018-12-23T00:16:58.603Z,100698.09
2018-12-23T00:17:33.614Z,100696.16
2018-12-23T00:18:08.376Z,100684.19
2018-12-23T00:18:43.147Z,100691.00
2018-12-23T00:19:17.860Z,100690.17
2018-12-23T00:19:52.508Z,100691.98
2018-12-23T00:20:27.201Z,100695.84
2018-12-23T00:21:01.829Z,100702.36
2018-12-23T00:21:36.545Z,100701.10
2018-12-23T00:22:11.142Z,100701.91
2018-12-23T00:22:45.743Z,100705.69
2018-12-23T00:23:20.346Z,100706.23
2018-12-23T00:23:54.944Z,100707.75
2018-12-23T00:24:29.589Z,100710.91
2018-12-23T00:25:05.346Z,100709.61
2018-12-23T00:25:40.054Z,100707.52
2018-12-23T00:26:14.686Z,100709.66
2018-12-23T00:26:49.312Z,100719.05
2018-12-23T00:27:23.950Z,100705.92
2018-12-23T00:27:58.625Z,100704.33
2018-12-23T00:28:33.226Z,100710.95
2018-12-23T00:29:08.121Z,100706.23
2018-12-23T00:29:43.235Z,100704.02
2018-12-23T00:30:18.210Z,100710.03
2018-12-23T00:30:52.891Z,100708.73
2018-12-23T00:31:27.544Z,100712.20
2018-12-23T00:32:02.160Z,100706.82
2018-12-23T00:32:36.910Z,100718.53
2018-12-23T00:33:11.676Z,100714.69
2018-12-23T00:33:46.270Z,100723.71
2018-12-23T00:34:20.882Z,100710.97
2018-12-23T00:34:55.643Z,100712.23
2018-12-23T00:35:30.251Z,100722.86
2018-12-23T00:36:05.754Z,100716.15
2018-12-23T00:36:40.481Z,100716.55
2018-12-23T00:37:15.073Z,100715.18
2018-12-23T00:37:49.681Z,100717.81
2018-12-23T00:38:24.329Z,100716.98
2018-12-23T00:38:58.942Z,100717.70
2018-12-23T00:39:33.581Z,100717.63
2018-12-23T00:40:08.201Z,100715.23
2018-12-23T00:40:42.903Z,100714.38
2018-12-23T00:41:17.979Z,100719.97
2018-12-23T00:41:52.651Z,100718.69
2018-12-23T00:42:27.237Z,100722.22
2018-12-23T00:43:01.855Z,100715.77
2018-12-23T00:43:36.554Z,100723.98
2018-12-23T00:44:11.375Z,100726.52
2018-12-23T00:44:45.951Z,100724.81
2018-12-23T00:45:20.539Z,100722.55
2018-12-23T00:45:55.146Z,100719.97
2018-12-23T00:46:29.861Z,100720.41
2018-12-23T00:47:06.160Z,100727.39
2018-12-23T00:47:43.813Z,100728.25
2018-12-23T00:48:18.620Z,100729.58
2018-12-23T00:48:53.222Z,100724.69
2018-12-23T00:49:28.470Z,100724.59
2018-12-23T00:50:03.511Z,100725.00
2018-12-23T00:50:38.230Z,100732.01
2018-12-23T00:51:13.046Z,100724.38
2018-12-23T00:51:47.756Z,100729.95
2018-12-23T00:52:22.372Z,100722.98
2018-12-23T00:52:57.100Z,100723.94
2018-12-23T00:53:31.676Z,100719.25
2018-12-23T00:54:06.803Z,100722.27
2018-12-23T00:54:41.435Z,100726.17
2018-12-23T00:55:16.049Z,100724.45
2018-12-23T00:55:50.631Z,100723.42
2018-12-23T00:56:25.248Z,100717.08
2018-12-23T00:57:00.025Z,100727.39
2018-12-23T00:57:34.724Z,100729.95
2018-12-23T00:58:09.397Z,100726.44
2018-12-23T00:58:44.287Z,100729.97
2018-12-23T00:59:18.946Z,100733.45
2018-12-23T00:59:53.657Z,100730.97
2018-12-23T01:00:28.292Z,100732.98
2018-12-23T01:01:02.986Z,100728.25
2018-12-23T01:01:37.635Z,100729.43
2018-12-23T01:02:12.364Z,100730.23
2018-12-23T01:02:47.037Z,100732.86
2018-12-23T01:03:21.654Z,100736.23
2018-12-23T01:03:56.265Z,100739.25
2018-12-23T01:04:31.026Z,100737.91
2018-12-23T01:05:07.434Z,100739.52
2018-12-23T01:05:42.532Z,100739.98
2018-12-23T01:06:17.791Z,100741.75
2018-12-23T01:06:52.455Z,100743.20
2018-12-23T01:07:27.400Z,100736.92
2018-12-23T01:08:02.018Z,100739.30
2018-12-23T01:08:36.681Z,100742.73
2018-12-23T01:09:11.374Z,100751.75
2018-12-23T01:09:46.116Z,100751.46
2018-12-23T01:10:20.720Z,100748.47
2018-12-23T01:10:55.332Z,100748.50
2018-12-23T01:11:29.998Z,100752.05
2018-12-23T01:12:05.105Z,100752.75
2018-12-23T01:12:39.898Z,100743.41
2018-12-23T01:13:14.517Z,100747.62
2018-12-23T01:13:49.231Z,100752.02
2018-12-23T01:14:23.818Z,100753.67
2018-12-23T01:14:58.428Z,100754.58
2018-12-23T01:15:33.073Z,100749.77
2018-12-23T01:16:07.806Z,100749.03
2018-12-23T01:16:42.490Z,100749.03
2018-12-23T01:17:17.153Z,100749.05
2018-12-23T01:17:51.750Z,100755.06
2018-12-23T01:18:26.358Z,100758.95
2018-12-23T01:19:00.945Z,100757.63
2018-12-23T01:19:35.559Z,100757.08
2018-12-23T01:20:10.221Z,100754.20
2018-12-23T01:20:44.819Z,100753.35
2018-12-23T01:21:19.951Z,100749.05
2018-12-23T01:21:54.536Z,100760.53
2018-12-23T01:22:29.200Z,100756.34
2018-12-23T01:23:04.012Z,100765.39
2018-12-23T01:23:38.713Z,100759.01
2018-12-23T01:24:13.307Z,100761.52
2018-12-23T01:24:47.899Z,100763.65
2018-12-23T01:25:22.532Z,100764.60
2018-12-23T01:25:57.114Z,100761.52
2018-12-23T01:26:31.765Z,100766.72
2018-12-23T01:27:06.433Z,100767.53
2018-12-23T01:27:41.066Z,100763.29
2018-12-23T01:28:15.712Z,100767.16
2018-12-23T01:28:50.356Z,100767.97
2018-12-23T01:29:25.010Z,100765.89
2018-12-23T01:29:59.702Z,100764.19
2018-12-23T01:30:34.450Z,100764.50
2018-12-23T01:31:09.293Z,100760.23
2018-12-23T01:31:44.049Z,100761.56
2018-12-23T01:32:18.677Z,100766.66
2018-12-23T01:32:53.354Z,100758.68
2018-12-23T01:33:27.980Z,100759.59
2018-12-23T01:34:02.587Z,100761.77
2018-12-23T01:34:37.383Z,100759.22
2018-12-23T01:35:12.301Z,100763.11
2018-12-23T01:35:46.932Z,100766.17
2018-12-23T01:36:21.544Z,100765.76
2018-12-23T01:36:56.473Z,100765.27
2018-12-23T01:37:31.089Z,100763.13
2018-12-23T01:38:05.711Z,100764.92
2018-12-23T01:38:40.425Z,100769.65
2018-12-23T01:39:15.241Z,100772.25
2018-12-23T01:39:49.855Z,100775.55
2018-12-23T01:40:24.493Z,100770.77
2018-12-23T01:40:59.134Z,100775.27
2018-12-23T01:41:33.808Z,100772.64
2018-12-23T01:42:08.746Z,100774.41
2018-12-23T01:42:43.373Z,100774.20
2018-12-23T01:43:17.977Z,100768.99
2018-12-23T01:43:52.596Z,100775.48
2018-12-23T01:44:27.230Z,100769.05
2018-12-23T01:45:01.854Z,100768.67
2018-12-23T01:45:36.502Z,100773.98
2018-12-23T01:46:11.168Z,100771.11
2018-12-23T01:46:46.234Z,100773.66
2018-12-23T01:47:20.896Z,100775.39
2018-12-23T01:47:55.536Z,100775.48
2018-12-23T01:48:30.213Z,100771.84
2018-12-23T01:49:05.255Z,100773.50
2018-12-23T01:49:39.985Z,100761.17
2018-12-23T01:50:14.582Z,100763.59
2018-12-23T01:50:49.568Z,100764.54
2018-12-23T01:51:24.152Z,100759.59
2018-12-23T01:51:59.285Z,100764.93
2018-12-23T01:52:33.964Z,100760.17
2018-12-23T01:53:08.666Z,100763.75
2018-12-23T01:53:43.390Z,100758.16
2018-12-23T01:54:18.039Z,100758.22
2018-12-23T01:54:52.642Z,100764.25
2018-12-23T01:55:27.705Z,100767.24
2018-12-23T01:56:02.614Z,100761.80
2018-12-23T01:56:37.410Z,100768.14
2018-12-23T01:57:12.080Z,100769.11
2018-12-23T01:57:46.730Z,100777.11
2018-12-23T01:58:21.405Z,100775.84
2018-12-23T01:58:56.038Z,100782.59
2018-12-23T01:59:30.668Z,100788.25
2018-12-23T02:00:08.122Z,100793.73
2018-12-23T02:00:42.752Z,100784.16
2018-12-23T02:01:17.986Z,100784.31
2018-12-23T02:01:52.789Z,100782.78
2018-12-23T02:02:27.391Z,100794.75
2018-12-23T02:03:02.035Z,100790.44
2018-12-23T02:03:36.727Z,100794.75
2018-12-23T02:04:11.376Z,100792.02
2018-12-23T02:04:46.048Z,100784.73
2018-12-23T02:05:21.119Z,100790.00
2018-12-23T02:05:55.804Z,100786.26
2018-12-23T02:06:30.407Z,100788.72
2018-12-23T02:07:05.592Z,100796.45
2018-12-23T02:07:40.240Z,100789.98
2018-12-23T02:08:14.892Z,100794.33
2018-12-23T02:08:49.548Z,100778.34
2018-12-23T02:09:24.188Z,100784.44
2018-12-23T02:09:58.823Z,100782.73
2018-12-23T02:10:33.440Z,100796.49
2018-12-23T02:11:08.186Z,100788.73
2018-12-23T02:11:42.864Z,100780.59
2018-12-23T02:12:17.487Z,100775.44
2018-12-23T02:12:52.108Z,100789.55
2018-12-23T02:13:26.700Z,100782.56
2018-12-23T02:14:01.341Z,100776.07
2018-12-23T02:14:35.925Z,100779.50
2018-12-23T02:15:11.036Z,100765.47
2018-12-23T02:15:45.669Z,100770.61
2018-12-23T02:16:22.768Z,100759.58
2018-12-23T02:16:57.364Z,100762.95
2018-12-23T02:17:31.974Z,100762.20
2018-12-23T02:18:06.637Z,100763.63
2018-12-23T02:18:41.273Z,100768.19
2018-12-23T02:19:15.928Z,100771.25
2018-12-23T02:19:50.563Z,100774.61
2018-12-23T02:20:25.199Z,100772.31
2018-12-23T02:20:59.813Z,100777.91
2018-12-23T02:21:34.441Z,100769.30
2018-12-23T02:22:09.223Z,100769.40
2018-12-23T02:22:44.399Z,100768.22
2018-12-23T02:23:19.538Z,100770.17
2018-12-23T02:23:54.457Z,100768.11
2018-12-23T02:24:29.103Z,100768.61
2018-12-23T02:25:04.325Z,100775.95
2018-12-23T02:25:38.942Z,100760.23
2018-12-23T02:26:13.527Z,100773.41
2018-12-23T02:26:48.295Z,100773.10
2018-12-23T02:27:23.085Z,100772.19
2018-12-23T02:27:58.067Z,100766.24
2018-12-23T02:28:32.757Z,100768.65
2018-12-23T02:29:07.358Z,100768.65
2018-12-23T02:29:42.155Z,100767.05
2018-12-23T02:30:16.920Z,100764.95
2018-12-23T02:30:52.230Z,100756.86
2018-12-23T02:31:26.948Z,100760.58
2018-12-23T02:32:01.975Z,100770.52
2018-12-23T02:32:37.755Z,100767.95
2018-12-23T02:33:12.368Z,100767.12
2018-12-23T02:33:47.286Z,100763.63
2018-12-23T02:34:21.970Z,100766.12
2018-12-23T02:34:56.661Z,100761.74
2018-12-23T02:35:31.402Z,100755.52
2018-12-23T02:36:06.024Z,100761.81
2018-12-23T02:36:40.716Z,100760.06
2018-12-23T02:37:15.334Z,100763.63
2018-12-23T02:37:49.965Z,100758.16
2018-12-23T02:38:24.796Z,100761.09
2018-12-23T02:38:59.598Z,100763.03
2018-12-23T02:39:34.250Z,100760.14
2018-12-23T02:40:08.912Z,100767.08
2018-12-23T02:40:43.700Z,100756.88
2018-12-23T02:41:18.395Z,100760.80
2018-12-23T02:41:53.374Z,100761.65
2018-12-23T02:42:28.660Z,100761.34
2018-12-23T02:43:03.464Z,100759.09
2018-12-23T02:43:38.072Z,100764.33
2018-12-23T02:44:12.771Z,100757.97
2018-12-23T02:44:47.422Z,100758.83
2018-12-23T02:45:22.229Z,100768.28
2018-12-23T02:45:56.960Z,100759.31
2018-12-23T02:46:31.648Z,100759.31
2018-12-23T02:47:06.451Z,100763.08
2018-12-23T02:47:41.071Z,100770.21
2018-12-23T02:48:15.788Z,100760.90
2018-12-23T02:48:50.378Z,100755.35
2018-12-23T02:49:25.481Z,100762.11
2018-12-23T02:50:00.178Z,100763.08
2018-12-23T02:50:34.837Z,100766.83
2018-12-23T02:51:09.451Z,100766.92
2018-12-23T02:51:44.051Z,100766.08
2018-12-23T02:52:18.685Z,100763.94
2018-12-23T02:52:53.739Z,100772.06
2018-12-23T02:53:28.570Z,100767.31
2018-12-23T02:54:03.299Z,100770.40
2018-12-23T02:54:38.071Z,100768.14
2018-12-23T02:55:13.241Z,100772.40
2018-12-23T02:55:47.993Z,100768.63
2018-12-23T02:56:23.970Z,100772.15
2018-12-23T02:56:58.752Z,100767.53
2018-12-23T02:57:33.588Z,100770.55
2018-12-23T02:58:08.302Z,100765.80
2018-12-23T02:58:42.933Z,100770.04
2018-12-23T02:59:17.887Z,100767.09
2018-12-23T02:59:52.790Z,100763.75
2018-12-23T03:00:27.732Z,100766.77
2018-12-23T03:01:03.038Z,100769.44
2018-12-23T03:01:37.682Z,100765.52
2018-12-23T03:02:12.774Z,100770.80
2018-12-23T03:02:47.511Z,100775.30
2018-12-23T03:03:22.150Z,100774.16
2018-12-23T03:03:57.034Z,100775.11
2018-12-23T03:04:32.018Z,100775.16
2018-12-23T03:05:07.318Z,100776.37
2018-12-23T03:05:41.932Z,100774.23
2018-12-23T03:06:17.232Z,100777.80
2018-12-23T03:06:52.059Z,100781.52
2018-12-23T03:07:26.886Z,100767.47
2018-12-23T03:08:01.582Z,100782.51
2018-12-23T03:08:36.317Z,100776.91
2018-12-23T03:09:10.956Z,100770.01
2018-12-23T03:09:45.543Z,100775.59
2018-12-23T03:10:20.150Z,100779.45
2018-12-23T03:10:55.162Z,100778.97
2018-12-23T03:11:30.183Z,100775.55
2018-12-23T03:12:05.720Z,100781.98
2018-12-23T03:12:40.394Z,100776.47
2018-12-23T03:13:15.040Z,100779.50
2018-12-23T03:13:49.635Z,100784.17
2018-12-23T03:14:24.460Z,100781.62
2018-12-23T03:14:59.552Z,100788.06
2018-12-23T03:15:34.338Z,100788.08
2018-12-23T03:16:09.433Z,100785.06
2018-12-23T03:16:44.050Z,100781.68
2018-12-23T03:17:18.666Z,100785.11
2018-12-23T03:17:53.876Z,100785.06
2018-12-23T03:18:28.572Z,100778.23
2018-12-23T03:19:03.288Z,100789.80
2018-12-23T03:19:37.910Z,100783.25
2018-12-23T03:20:13.463Z,100779.36
2018-12-23T03:20:48.096Z,100783.53
2018-12-23T03:21:22.867Z,100778.45
2018-12-23T03:21:57.864Z,100775.45
2018-12-23T03:22:32.527Z,100768.41
2018-12-23T03:23:07.159Z,100775.16
2018-12-23T03:23:42.210Z,100775.82
2018-12-23T03:24:17.258Z,100774.52
2018-12-23T03:24:51.949Z,100780.34
2018-12-23T03:25:26.697Z,100779.55
2018-12-23T03:26:01.630Z,100776.37
2018-12-23T03:26:36.230Z,100783.64
2018-12-23T03:27:10.851Z,100786.19
2018-12-23T03:27:45.456Z,100790.55
2018-12-23T03:28:20.096Z,100792.11
2018-12-23T03:28:55.019Z,100788.70
2018-12-23T03:29:29.734Z,100786.67
2018-12-23T03:30:05.483Z,100793.10
2018-12-23T03:30:40.090Z,100795.70
2018-12-23T03:31:14.763Z,100780.46
2018-12-23T03:31:49.384Z,100786.47
2018-12-23T03:32:24.479Z,100782.22
2018-12-23T03:32:59.272Z,100784.89
2018-12-23T03:33:33.914Z,100786.81
2018-12-23T03:34:08.526Z,100778.78
2018-12-23T03:34:43.253Z,100780.50
2018-12-23T03:35:17.843Z,100778.00
2018-12-23T03:35:52.500Z,100781.44
2018-12-23T03:36:27.324Z,100785.34
2018-12-23T03:37:02.013Z,100781.88
2018-12-23T03:37:36.634Z,100783.64
2018-12-23T03:38:11.384Z,100782.33
2018-12-23T03:38:45.982Z,100779.80
2018-12-23T03:39:20.722Z,100774.98
2018-12-23T03:39:55.577Z,100775.66
2018-12-23T03:40:31.534Z,100778.32
2018-12-23T03:41:06.659Z,100776.58
2018-12-23T03:41:41.313Z,100774.52
2018-12-23T03:42:16.383Z,100777.48
2018-12-23T03:42:51.065Z,100772.41
2018-12-23T03:43:25.921Z,100770.75
2018-12-23T03:44:00.621Z,100768.20
2018-12-23T03:44:35.762Z,100771.18
2018-12-23T03:45:10.402Z,100778.91
2018-12-23T03:45:45.021Z,100770.41
2018-12-23T03:46:19.616Z,100773.70
2018-12-23T03:46:54.350Z,100781.81
2018-12-23T03:47:29.127Z,100775.80
2018-12-23T03:48:03.860Z,100777.19
2018-12-23T03:48:38.622Z,100781.13
2018-12-23T03:49:13.241Z,100779.45
2018-12-23T03:49:47.853Z,100767.95
2018-12-23T03:50:22.551Z,100781.13
2018-12-23T03:50:57.496Z,100778.03
2018-12-23T03:51:32.248Z,100775.02
2018-12-23T03:52:06.872Z,100772.36
2018-12-23T03:52:41.539Z,100770.31
2018-12-23T03:53:16.521Z,100771.29
2018-12-23T03:53:51.136Z,100762.38
2018-12-23T03:54:26.040Z,100764.02
2018-12-23T03:55:00.974Z,100763.62
2018-12-23T03:55:35.671Z,100767.47
2018-12-23T03:56:10.260Z,100762.81
2018-12-23T03:56:44.852Z,100763.27
2018-12-23T03:57:19.463Z,100760.13
2018-12-23T03:57:54.399Z,100765.27
2018-12-23T03:58:29.104Z,100763.45
2018-12-23T03:59:03.787Z,100765.27
2018-12-23T03:59:38.517Z,100773.41
2018-12-23T04:00:13.158Z,100767.48
2018-12-23T04:00:47.873Z,100764.99
2018-12-23T04:01:22.664Z,100764.58
2018-12-23T04:01:57.468Z,100769.75
2018-12-23T04:02:32.463Z,100770.66
2018-12-23T04:03:07.296Z,100774.96
2018-12-23T04:03:41.889Z,100766.05
2018-12-23T04:04:16.582Z,100775.92
2018-12-23T04:04:51.227Z,100766.92
2018-12-23T04:05:26.050Z,100774.53
2018-12-23T04:06:01.113Z,100768.89
2018-12-23T04:06:35.756Z,100773.67
2018-12-23T04:07:10.471Z,100768.98
2018-12-23T04:07:45.063Z,100768.00
2018-12-23T04:08:19.687Z,100771.95
2018-12-23T04:08:54.475Z,100770.77
2018-12-23T04:09:29.268Z,100769.48
2018-12-23T04:10:05.055Z,100765.50
2018-12-23T04:10:39.704Z,100769.73
2018-12-23T04:11:14.381Z,100773.31
2018-12-23T04:11:49.052Z,100771.70
2018-12-23T04:12:23.938Z,100764.44
2018-12-23T04:12:59.111Z,100762.20
2018-12-23T04:13:33.731Z,100755.55
2018-12-23T04:14:08.317Z,100758.97
2018-12-23T04:14:43.095Z,100765.17
2018-12-23T04:15:17.731Z,100763.60
2018-12-23T04:15:52.543Z,100761.55
2018-12-23T04:16:27.236Z,100762.87
2018-12-23T04:17:02.143Z,100758.77
2018-12-23T04:17:36.729Z,100761.64
2018-12-23T04:18:11.371Z,100770.03
2018-12-23T04:18:46.011Z,100775.08
2018-12-23T04:19:20.659Z,100770.88
2018-12-23T04:19:55.663Z,100766.92
2018-12-23T04:20:30.432Z,100770.33
2018-12-23T04:21:05.213Z,100760.84
2018-12-23T04:21:39.853Z,100768.72
2018-12-23T04:22:14.545Z,100770.00
2018-12-23T04:22:49.602Z,100768.31
2018-12-23T04:23:24.910Z,100766.61
2018-12-23T04:23:59.912Z,100760.48
2018-12-23T04:24:34.670Z,100760.46
2018-12-23T04:25:09.355Z,100764.69
2018-12-23T04:25:44.184Z,100755.70
2018-12-23T04:26:18.898Z,100759.59
2018-12-23T04:26:53.701Z,100753.53
2018-12-23T04:27:28.524Z,100757.83
2018-12-23T04:28:03.251Z,100757.28
2018-12-23T04:28:37.954Z,100748.68
2018-12-23T04:29:12.641Z,100754.61
2018-12-23T04:29:47.311Z,100755.05
2018-12-23T04:30:22.079Z,100753.85
2018-12-23T04:30:57.008Z,100748.83
2018-12-23T04:31:31.760Z,100756.27
2018-12-23T04:32:06.378Z,100755.33
2018-12-23T04:32:41.112Z,100758.13
2018-12-23T04:33:15.779Z,100752.91
2018-12-23T04:33:50.594Z,100754.74
2018-12-23T04:34:25.759Z,100747.98
2018-12-23T04:35:00.673Z,100756.88
2018-12-23T04:35:35.269Z,100756.84
2018-12-23T04:36:09.998Z,100756.27
2018-12-23T04:36:44.767Z,100756.70
2018-12-23T04:37:19.395Z,100749.83
2018-12-23T04:37:55.063Z,100754.06
2018-12-23T04:38:29.816Z,100749.78
2018-12-23T04:39:06.370Z,100758.89
2018-12-23T04:39:41.044Z,100752.45
2018-12-23T04:40:15.649Z,100757.72
2018-12-23T04:40:50.781Z,100759.55
2018-12-23T04:41:25.595Z,100755.69
2018-12-23T04:42:00.292Z,100756.67
2018-12-23T04:42:35.191Z,100753.30
2018-12-23T04:43:09.793Z,100755.11
2018-12-23T04:43:44.489Z,100757.27
2018-12-23T04:44:19.113Z,100758.10
2018-12-23T04:44:53.879Z,100754.23
2018-12-23T04:45:28.566Z,100757.77
2018-12-23T04:46:03.733Z,100757.99
2018-12-23T04:46:38.441Z,100757.02
2018-12-23T04:47:13.056Z,100760.35
2018-12-23T04:47:47.680Z,100763.70
2018-12-23T04:48:22.373Z,100764.55
2018-12-23T04:48:57.098Z,100762.03
2018-12-23T04:49:31.950Z,100761.92
2018-12-23T04:50:07.902Z,100767.60
2018-12-23T04:50:42.506Z,100765.01
2018-12-23T04:51:17.130Z,100765.05
2018-12-23T04:51:52.260Z,100766.84
2018-12-23T04:52:27.021Z,100764.17
2018-12-23T04:53:01.924Z,100772.91
2018-12-23T04:53:36.525Z,100769.48
2018-12-23T04:54:11.143Z,100768.56
2018-12-23T04:54:45.939Z,100771.18
2018-12-23T04:55:20.551Z,100765.63
2018-12-23T04:55:55.314Z,100768.26
2018-12-23T04:56:30.101Z,100771.70
2018-12-23T04:57:04.702Z,100764.11
2018-12-23T04:57:39.396Z,100765.88
2018-12-23T04:58:13.999Z,100771.88
2018-12-23T04:58:48.644Z,100774.42
2018-12-23T04:59:23.361Z,100778.48
2018-12-23T04:59:58.162Z,100767.84
2018-12-23T05:00:32.791Z,100771.00
2018-12-23T05:01:07.422Z,100770.23
2018-12-23T05:01:42.041Z,100763.39
2018-12-23T05:02:16.670Z,100769.41
2018-12-23T05:02:51.407Z,100766.73
2018-12-23T05:03:26.127Z,100764.27
2018-12-23T05:04:00.831Z,100769.29
2018-12-23T05:04:35.433Z,100768.11
2018-12-23T05:05:10.025Z,100766.20
2018-12-23T05:05:44.633Z,100762.45
2018-12-23T05:06:19.282Z,100769.37
2018-12-23T05:06:54.454Z,100762.45
2018-12-23T05:07:29.317Z,100767.97
2018-12-23T05:08:04.108Z,100759.43
2018-12-23T05:08:38.724Z,100761.22
2018-12-23T05:09:13.353Z,100759.98
2018-12-23T05:09:48.242Z,100761.30
2018-12-23T05:10:23.217Z,100765.66
2018-12-23T05:10:57.931Z,100764.03
2018-12-23T05:11:32.551Z,100765.69
2018-12-23T05:12:07.284Z,100768.19
2018-12-23T05:12:41.898Z,100768.25
2018-12-23T05:13:16.523Z,100765.34
2018-12-23T05:13:51.158Z,100766.66
2018-12-23T05:14:25.931Z,100757.95
2018-12-23T05:15:00.840Z,100764.42
2018-12-23T05:15:35.740Z,100761.27
2018-12-23T05:16:10.376Z,100760.30
2018-12-23T05:16:44.979Z,100761.64
2018-12-23T05:17:19.589Z,100756.61
2018-12-23T05:17:54.368Z,100765.86
2018-12-23T05:18:29.184Z,100757.77
2018-12-23T05:19:03.998Z,100759.20
2018-12-23T05:19:38.871Z,100763.11
2018-12-23T05:20:13.490Z,100766.94
2018-12-23T05:20:48.123Z,100760.38
2018-12-23T05:21:23.239Z,100754.78
2018-12-23T05:21:58.074Z,100762.56
2018-12-23T05:22:32.931Z,100763.05
2018-12-23T05:23:07.584Z,100760.09
2018-12-23T05:23:42.236Z,100765.70
2018-12-23T05:24:16.901Z,100757.11
2018-12-23T05:24:51.558Z,100759.73
2018-12-23T05:25:26.340Z,100756.64
2018-12-23T05:26:01.169Z,100763.00
2018-12-23T05:26:35.873Z,100760.37
2018-12-23T05:27:10.512Z,100764.23
2018-12-23T05:27:45.176Z,100762.98
2018-12-23T05:28:20.856Z,100760.80
2018-12-23T05:28:55.808Z,100759.52
2018-12-23T05:29:30.504Z,100758.64
2018-12-23T05:30:05.715Z,100756.42
2018-12-23T05:31:21.261Z,100752.53
2018-12-23T05:31:56.079Z,100751.80
2018-12-23T05:32:31.174Z,100752.66
2018-12-23T05:33:05.788Z,100744.55
2018-12-23T05:33:40.427Z,100746.31
2018-12-23T05:34:15.038Z,100742.36
2018-12-23T05:34:49.665Z,100739.27
2018-12-23T05:35:24.349Z,100746.68
2018-12-23T05:35:59.503Z,100748.91
2018-12-23T05:36:34.128Z,100744.55
2018-12-23T05:37:08.840Z,100750.27
2018-12-23T05:37:43.948Z,100753.39
2018-12-23T05:38:18.625Z,100748.30
2018-12-23T05:38:53.323Z,100745.16
2018-12-23T05:39:27.959Z,100749.15
2018-12-23T05:40:03.067Z,100752.98
2018-12-23T05:40:37.652Z,100748.77
2018-12-23T05:41:12.841Z,100715.60
2018-12-23T05:41:47.430Z,100751.84
2018-12-23T05:42:22.284Z,100755.15
2018-12-23T05:42:57.132Z,100753.38
2018-12-23T05:43:31.754Z,100756.83
2018-12-23T05:44:06.388Z,100752.14
2018-12-23T05:44:41.022Z,100755.41
2018-12-23T05:45:15.646Z,100755.77
2018-12-23T05:45:50.351Z,100757.59
2018-12-23T05:46:25.064Z,100754.23
2018-12-23T05:46:59.721Z,100753.50
2018-12-23T05:47:34.433Z,100747.55
2018-12-23T05:48:09.048Z,100746.70
2018-12-23T05:48:43.730Z,100744.19
2018-12-23T05:49:18.350Z,100754.41
2018-12-23T05:49:52.982Z,100748.91
2018-12-23T05:50:27.751Z,100746.77
2018-12-23T05:51:02.430Z,100755.11
2018-12-23T05:51:37.055Z,100756.94
2018-12-23T05:52:11.648Z,100751.81
2018-12-23T05:52:46.358Z,100752.66
2018-12-23T05:53:20.954Z,100757.69
2018-12-23T05:53:55.704Z,100755.58
2018-12-23T05:54:30.516Z,100756.95
2018-12-23T05:55:05.097Z,100752.63
2018-12-23T05:55:38.666Z,100753.91
2018-12-23T05:56:13.308Z,100753.50
2018-12-23T05:56:47.923Z,100753.91
2018-12-23T05:57:22.589Z,100753.45
2018-12-23T05:57:57.300Z,100749.37
2018-12-23T05:58:32.659Z,100754.13
2018-12-23T05:59:07.258Z,100752.53
2018-12-23T05:59:42.021Z,100750.81
2018-12-23T06:00:16.648Z,100755.20
2018-12-23T06:00:51.703Z,100749.37
2018-12-23T06:01:26.348Z,100758.27
2018-12-23T06:02:01.129Z,100743.74
2018-12-23T06:02:35.913Z,100757.99
2018-12-23T06:03:10.546Z,100755.08
2018-12-23T06:03:45.242Z,100761.02
2018-12-23T06:04:19.995Z,100763.89
2018-12-23T06:04:54.707Z,100758.87
2018-12-23T06:05:29.464Z,100763.47
2018-12-23T06:06:04.078Z,100769.11
2018-12-23T06:06:38.691Z,100760.13
2018-12-23T06:07:13.485Z,100764.78
2018-12-23T06:07:48.131Z,100761.89
2018-12-23T06:08:23.041Z,100762.86
2018-12-23T06:08:57.743Z,100764.47
2018-12-23T06:09:32.471Z,100759.63
2018-12-23T06:10:07.163Z,100766.34
2018-12-23T06:10:42.144Z,100764.08
2018-12-23T06:11:16.821Z,100769.34
2018-12-23T06:11:51.664Z,100768.98
2018-12-23T06:12:26.311Z,100774.20
2018-12-23T06:13:01.180Z,100772.41
2018-12-23T06:13:35.739Z,100775.67
2018-12-23T06:14:10.354Z,100771.86
2018-12-23T06:14:44.960Z,100771.58
2018-12-23T06:15:19.602Z,100781.48
2018-12-23T06:15:54.859Z,100781.16
2018-12-23T06:16:29.509Z,100773.46
2018-12-23T06:17:04.162Z,100776.78
2018-12-23T06:17:38.848Z,100775.56
2018-12-23T06:18:13.488Z,100780.19
2018-12-23T06:18:48.093Z,100774.08
2018-12-23T06:19:22.884Z,100776.22
2018-12-23T06:19:57.818Z,100780.19
2018-12-23T06:20:32.500Z,100783.71
2018-12-23T06:21:07.068Z,100780.28
2018-12-23T06:21:41.676Z,100784.91
2018-12-23T06:22:16.310Z,100784.02
2018-12-23T06:22:51.643Z,100785.31
2018-12-23T06:23:26.376Z,100781.92
2018-12-23T06:24:01.114Z,100781.48
2018-12-23T06:24:35.779Z,100788.38
2018-12-23T06:25:10.461Z,100781.57
2018-12-23T06:25:45.089Z,100787.61
2018-12-23T06:26:20.066Z,100787.02
2018-12-23T06:26:54.712Z,100787.03
2018-12-23T06:27:29.398Z,100786.65
2018-12-23T06:28:04.119Z,100785.44
2018-12-23T06:28:38.742Z,100777.72
2018-12-23T06:29:13.361Z,100774.82
2018-12-23T06:29:48.062Z,100781.13
2018-12-23T06:30:22.824Z,100775.59
2018-12-23T06:30:57.869Z,100774.72
2018-12-23T06:31:32.589Z,100775.19
2018-12-23T06:32:07.283Z,100777.31
2018-12-23T06:32:42.040Z,100772.58
2018-12-23T06:33:17.165Z,100775.94
2018-12-23T06:33:51.860Z,100773.34
2018-12-23T06:34:26.649Z,100767.84
2018-12-23T06:35:01.416Z,100773.42
2018-12-23T06:35:36.043Z,100764.34
2018-12-23T06:36:10.716Z,100768.30
2018-12-23T06:36:45.343Z,100765.68
2018-12-23T06:37:19.958Z,100769.00